Airport View

Enter AWOS ICAO identifier for current METAR.

ex. KFNL

KPSO 191355Z AUTO 00000KT 1 3/4SM -SN OVC009 M08/M08 A2973 RMK AO2 T10761077

19 Feb 2019 13:55

Frequency: 127.175

Phone: 970-731-0365

Other Area AWOS: KCPW - KDRO - KRCV - KTEX

TAF AMD KALS 191340Z 1914/2012 17012KT P6SM VCSH SCT015 BKN080 FM191900 20010KT P6SM VCSH SCT025 BKN080 FM200400 VRB04KT P6SM SCT030 BKN060